Time;durP1;ratioP1;P1;durP2;ratioP2;P2;SDS_P1;SDS_P2;PMS_P1;PMS_P2;Temp;Humidity;BMP_temperature;BMP_pressure;BME280_temperature;BME280_humidity;BME280_pressure;Samples;Min_cycle;Max_cycle;Signal;HPM_P1;HPM_P2
2022/08/14 00:01:23;;;;;;;2.78;2.17;;;23.40;81.20;;;;;;5080217;28;20301;-59
2022/08/14 00:03:49;;;;;;;3.60;2.30;;;23.30;82.50;;;;;;5080953;28;20309;-59
2022/08/14 00:06:14;;;;;;;3.30;2.10;;;23.40;83.40;;;;;;5080203;28;20124;-58
2022/08/14 00:08:40;;;;;;;2.40;2.20;;;23.30;83.20;;;;;;5080778;28;20432;-58
2022/08/14 00:11:06;;;;;;;3.58;2.20;;;23.30;83.80;;;;;;5080812;28;20055;-59
2022/08/14 00:13:32;;;;;;;6.03;2.35;;;23.20;84.70;;;;;;5081055;28;20071;-58
2022/08/14 00:15:58;;;;;;;2.65;2.25;;;23.20;85.50;;;;;;5081008;28;20036;-58
2022/08/14 00:18:26;;;;;;;4.80;2.40;;;23.20;85.60;;;;;;5080634;28;20055;-59
2022/08/14 00:20:53;;;;;;;2.38;2.10;;;23.10;86.60;;;;;;5080649;28;20039;-58
2022/08/14 00:23:19;;;;;;;3.15;2.20;;;23.10;88.20;;;;;;5080604;28;20287;-59
2022/08/14 00:25:50;;;;;;;3.33;2.55;;;23.10;88.10;;;;;;5080591;28;20107;-58
2022/08/14 00:28:17;;;;;;;4.13;2.37;;;23.10;89.40;;;;;;5080997;28;20028;-58
2022/08/14 00:30:45;;;;;;;5.03;2.15;;;23.00;90.00;;;;;;5079787;28;20123;-58
2022/08/14 00:33:12;;;;;;;3.83;2.30;;;23.00;90.40;;;;;;5080951;28;20035;-58
2022/08/14 00:35:37;;;;;;;4.22;2.30;;;22.90;90.60;;;;;;5080634;28;20078;-58
2022/08/14 00:38:04;;;;;;;3.97;2.05;;;22.90;91.20;;;;;;5080338;28;20028;-58
2022/08/14 00:40:29;;;;;;;4.50;2.30;;;22.80;91.10;;;;;;5080219;28;20037;-59
2022/08/14 00:42:55;;;;;;;3.17;2.30;;;22.80;91.60;;;;;;5080231;28;20037;-58
2022/08/14 00:45:21;;;;;;;2.65;2.30;;;22.80;91.90;;;;;;5080114;28;20043;-58
2022/08/14 00:47:48;;;;;;;4.72;2.70;;;22.90;92.40;;;;;;5080555;28;20032;-58
2022/08/14 00:50:17;;;;;;;3.55;2.42;;;22.90;92.30;;;;;;5080024;28;20032;-58
2022/08/14 00:52:47;;;;;;;3.65;2.47;;;22.80;92.50;;;;;;5079202;28;20127;-58
2022/08/14 00:55:13;;;;;;;2.50;2.10;;;22.60;93.40;;;;;;5079193;28;20277;-58
2022/08/14 00:57:40;;;;;;;3.15;2.38;;;22.50;94.50;;;;;;5080388;28;20114;-58
2022/08/14 01:00:13;;;;;;;4.53;2.33;;;22.50;94.90;;;;;;5079880;28;20044;-58
2022/08/14 01:02:43;;;;;;;4.63;2.53;;;22.40;95.60;;;;;;5080432;28;20032;-58
2022/08/14 01:05:22;;;;;;;3.03;2.63;;;22.40;96.00;;;;;;5079752;28;20032;-58
2022/08/14 01:07:58;;;;;;;3.58;2.50;;;22.40;96.50;;;;;;5079734;28;20039;-58
2022/08/14 01:10:49;;;;;;;5.22;2.53;;;22.40;96.80;;;;;;5079714;28;20097;-58
2022/08/14 01:13:15;;;;;;;3.28;2.88;;;22.30;97.70;;;;;;5078946;28;20353;-58
2022/08/14 01:15:51;;;;;;;2.65;2.45;;;22.20;98.30;;;;;;5079595;28;20039;-58
2022/08/14 01:21:08;;;;;;;2.60;2.33;;;22.10;99.30;;;;;;5079488;28;20071;-58
2022/08/14 01:23:35;;;;;;;4.18;2.47;;;22.10;99.80;;;;;;5079527;28;20032;-58
2022/08/14 01:26:02;;;;;;;4.03;2.30;;;22.10;99.90;;;;;;5078722;28;20411;-58
2022/08/14 01:28:30;;;;;;;4.32;2.67;;;22.20;99.90;;;;;;5079295;28;20032;-58
2022/08/14 01:30:57;;;;;;;3.42;3.03;;;22.20;99.90;;;;;;5079720;28;20059;-58
2022/08/14 01:33:28;;;;;;;3.58;2.78;;;22.10;99.90;;;;;;5061845;28;20017;-59
2022/08/14 01:36:01;;;;;;;2.95;2.65;;;22.20;99.90;;;;;;5079672;28;20028;-58
2022/08/14 01:38:33;;;;;;;4.18;2.58;;;22.10;99.90;;;;;;5079220;28;20024;-58
2022/08/14 01:41:00;;;;;;;3.78;2.67;;;22.10;99.90;;;;;;5079196;28;20029;-58
2022/08/14 01:43:29;;;;;;;4.50;2.88;;;22.00;99.90;;;;;;5079033;28;20025;-58
2022/08/14 01:45:59;;;;;;;3.13;2.75;;;22.00;99.90;;;;;;5079093;28;20273;-59
2022/08/14 01:48:31;;;;;;;4.43;2.90;;;21.90;99.90;;;;;;5078973;28;20400;-61
2022/08/14 01:51:00;;;;;;;3.60;2.67;;;21.80;99.90;;;;;;5079427;28;20059;-58
2022/08/14 01:53:27;;;;;;;4.57;2.85;;;21.80;99.90;;;;;;5078936;28;20404;-58
2022/08/14 01:55:57;;;;;;;3.53;3.00;;;21.80;99.90;;;;;;5078888;28;20101;-59
2022/08/14 01:58:28;;;;;;;4.72;2.60;;;21.90;99.90;;;;;;5077865;28;20052;-59
2022/08/14 02:00:57;;;;;;;4.22;2.90;;;21.80;99.90;;;;;;5079269;28;20404;-59
2022/08/14 02:03:34;;;;;;;4.85;2.75;;;21.80;99.90;;;;;;5061542;28;20364;-59
2022/08/14 02:06:01;;;;;;;3.38;3.08;;;21.70;99.90;;;;;;5078945;28;20044;-59
2022/08/14 02:08:31;;;;;;;4.82;2.70;;;21.60;99.90;;;;;;5077803;28;20028;-59
2022/08/14 02:11:21;;;;;;;4.88;2.80;;;21.50;99.90;;;;;;5078583;28;20032;-59
2022/08/14 02:14:03;;;;;;;3.00;2.70;;;21.30;99.90;;;;;;5078864;28;20073;-60
2022/08/14 02:16:35;;;;;;;3.60;2.63;;;21.30;99.90;;;;;;5078326;28;20024;-58
2022/08/14 02:19:03;;;;;;;3.58;2.72;;;21.30;99.90;;;;;;5078456;28;20052;-58
2022/08/14 02:21:31;;;;;;;4.90;3.45;;;21.20;99.90;;;;;;5078300;28;20020;-58
2022/08/14 02:24:00;;;;;;;4.78;3.25;;;21.20;99.90;;;;;;5077306;28;20393;-58
2022/08/14 02:26:32;;;;;;;5.78;3.50;;;21.30;99.90;;;;;;5078179;28;20028;-58
2022/08/14 02:29:01;;;;;;;6.05;3.00;;;21.30;99.90;;;;;;5078131;28;20032;-58
2022/08/14 02:31:31;;;;;;;3.72;3.30;;;21.10;99.90;;;;;;5078083;28;20055;-58
2022/08/14 02:33:59;;;;;;;4.57;3.60;;;21.00;99.90;;;;;;5078137;28;20158;-58
2022/08/14 02:36:26;;;;;;;5.38;3.47;;;20.90;99.90;;;;;;5077962;28;20024;-58
2022/08/14 02:38:52;;;;;;;7.60;3.65;;;20.90;99.90;;;;;;5078036;28;20082;-58
2022/08/14 02:41:18;;;;;;;4.57;3.83;;;20.80;99.90;;;;;;5077941;28;20050;-59
2022/08/14 02:43:44;;;;;;;6.78;3.85;;;20.80;99.90;;;;;;5078337;28;20113;-59
2022/08/14 02:46:10;;;;;;;4.25;3.83;;;20.70;99.90;;;;;;5077150;28;20123;-59
2022/08/14 02:48:41;;;;;;;6.75;4.10;;;20.70;99.90;;;;;;5077740;28;20050;-59
2022/08/14 02:51:13;;;;;;;3.92;3.63;;;20.90;99.90;;;;;;5077077;28;20025;-59
2022/08/14 02:53:41;;;;;;;;;;;20.80;99.90;;;;;;5077316;28;20079;-59
2022/08/14 02:56:09;;;;;;;4.85;4.13;;;20.80;99.90;;;;;;5077706;28;19958;-59
2022/08/14 02:58:38;;;;;;;6.97;4.50;;;20.70;99.90;;;;;;5077529;28;20125;-59
2022/08/14 03:01:07;;;;;;;5.13;4.40;;;20.70;99.90;;;;;;5077961;28;20060;-59
2022/08/14 03:03:35;;;;;;;7.75;4.15;;;20.70;99.90;;;;;;5077488;28;20141;-59
2022/08/14 03:06:03;;;;;;;4.25;3.55;;;20.70;99.90;;;;;;5076813;28;20274;-59
2022/08/14 03:08:32;;;;;;;4.47;4.07;;;20.70;99.90;;;;;;5077337;28;20088;-59
2022/08/14 03:11:05;;;;;;;5.75;4.15;;;20.50;99.90;;;;;;5076636;28;20345;-58
2022/08/14 03:13:34;;;;;;;10.77;4.50;;;20.40;99.90;;;;;;5076666;28;20033;-58
2022/08/14 03:16:01;;;;;;;7.20;4.78;;;20.40;99.90;;;;;;5077613;28;20438;-58
2022/08/14 03:18:27;;;;;;;6.82;4.57;;;20.40;99.90;;;;;;5077261;28;20347;-59
2022/08/14 03:20:53;;;;;;;5.63;4.90;;;20.40;99.90;;;;;;5077774;28;20051;-58
2022/08/14 03:23:19;;;;;;;6.07;4.93;;;20.40;99.90;;;;;;5077192;28;20028;-58
2022/08/14 03:25:46;;;;;;;4.72;4.32;;;20.40;99.90;;;;;;5077233;28;20032;-58
2022/08/14 03:28:13;;;;;;;5.72;5.13;;;20.40;99.90;;;;;;5077092;28;20036;-58
2022/08/14 03:30:39;;;;;;;6.70;5.10;;;20.30;99.90;;;;;;5077137;28;20028;-58
2022/08/14 03:33:07;;;;;;;7.22;4.93;;;20.20;99.90;;;;;;5077143;28;20115;-58
2022/08/14 03:35:33;;;;;;;5.00;4.53;;;20.20;99.90;;;;;;5077079;28;20313;-58
2022/08/14 03:38:10;;;;;;;5.38;4.90;;;20.20;99.90;;;;;;5076310;28;20044;-58
2022/08/14 03:40:38;;;;;;;5.90;5.13;;;20.10;99.90;;;;;;5077049;28;20316;-58
2022/08/14 03:43:07;;;;;;;6.03;5.43;;;20.00;99.90;;;;;;5077002;28;20059;-59
2022/08/14 03:45:34;;;;;;;5.30;4.90;;;20.00;99.90;;;;;;5077001;28;20420;-58
2022/08/14 03:48:19;;;;;;;5.68;5.10;;;20.00;99.90;;;;;;5076881;28;20364;-58
2022/08/14 03:50:47;;;;;;;5.15;4.75;;;20.00;99.90;;;;;;5077192;28;20024;-58
2022/08/14 03:53:14;;;;;;;6.40;5.25;;;19.90;99.90;;;;;;5076889;28;20028;-58
2022/08/14 03:55:43;;;;;;;6.00;5.50;;;19.90;99.90;;;;;;5076887;28;20107;-58
2022/08/14 03:58:10;;;;;;;6.03;4.80;;;19.90;99.90;;;;;;5076605;28;20110;-58
2022/08/14 04:00:37;;;;;;;6.88;5.43;;;19.80;99.90;;;;;;5075994;28;20043;-58
2022/08/14 04:03:05;;;;;;;6.18;5.63;;;19.80;99.90;;;;;;5076816;28;20350;-58
2022/08/14 04:05:32;;;;;;;5.53;5.03;;;19.70;99.90;;;;;;5076774;28;20044;-58
2022/08/14 04:07:58;;;;;;;8.75;5.45;;;19.70;99.90;;;;;;5076646;28;20037;-59
2022/08/14 04:10:25;;;;;;;5.85;5.00;;;19.80;99.90;;;;;;5076636;28;20048;-58
2022/08/14 04:12:51;;;;;;;7.13;5.53;;;19.70;99.90;;;;;;5075912;28;20040;-58
2022/08/14 04:15:18;;;;;;;5.53;5.03;;;19.70;99.90;;;;;;5076705;28;20090;-64
2022/08/14 04:17:45;;;;;;;5.45;4.95;;;19.60;99.90;;;;;;5076748;28;20031;-58
2022/08/14 04:20:11;;;;;;;5.35;4.85;;;19.60;99.90;;;;;;5076563;28;20040;-58
2022/08/14 04:22:41;;;;;;;7.05;5.38;;;19.60;99.90;;;;;;5075782;28;20393;-58
2022/08/14 04:25:07;;;;;;;7.03;5.95;;;19.60;99.90;;;;;;5076513;28;20068;-58
2022/08/14 04:27:34;;;;;;;6.18;5.53;;;19.60;99.90;;;;;;5076663;28;20305;-58
2022/08/14 04:30:00;;;;;;;6.57;6.00;;;19.50;99.90;;;;;;5075830;28;20048;-58
2022/08/14 04:32:26;;;;;;;6.28;5.68;;;19.60;99.90;;;;;;5076494;28;20025;-58
2022/08/14 04:34:53;;;;;;;6.65;5.95;;;19.60;99.90;;;;;;5076640;28;20029;-58
2022/08/14 04:45:39;;;;;;;5.95;5.43;;;19.50;99.90;;;;;;5075627;28;20032;-58
2022/08/14 04:48:12;;;;;;;5.80;5.25;;;19.50;99.90;;;;;;5078725;28;20037;-58
2022/08/14 04:50:49;;;;;;;5.90;5.43;;;19.50;99.90;;;;;;5080684;28;20392;-58
2022/08/14 04:53:18;;;;;;;7.85;5.50;;;19.50;99.90;;;;;;5079308;28;20032;-58
2022/08/14 04:55:47;;;;;;;6.60;5.88;;;19.50;99.90;;;;;;5080241;28;20314;-58
2022/08/14 04:58:25;;;;;;;6.07;5.57;;;19.50;99.90;;;;;;5079388;28;20147;-58
2022/08/14 05:00:52;;;;;;;6.18;5.68;;;19.60;99.90;;;;;;5079301;28;20097;-58
2022/08/14 05:03:20;;;;;;;9.25;5.90;;;19.60;99.90;;;;;;5079817;28;20089;-58
2022/08/14 05:05:55;;;;;;;7.32;5.60;;;19.70;99.90;;;;;;5079841;28;20032;-58
2022/08/14 05:08:22;;;;;;;5.70;5.20;;;19.70;99.90;;;;;;5079649;28;20098;-58
2022/08/14 05:10:51;;;;;;;6.10;5.50;;;19.60;99.90;;;;;;5079701;28;20017;-58
2022/08/14 05:13:18;;;;;;;5.70;5.20;;;19.60;99.90;;;;;;5079686;28;20021;-59
2022/08/14 05:15:45;;;;;;;6.13;5.65;;;19.60;99.90;;;;;;5079609;28;20024;-59
2022/08/14 05:18:14;;;;;;;6.45;5.47;;;19.70;99.90;;;;;;5079574;28;20040;-59
2022/08/14 05:20:48;;;;;;;7.05;5.60;;;19.70;99.90;;;;;;5078843;28;20039;-60
2022/08/14 05:23:17;;;;;;;6.72;6.07;;;19.80;99.90;;;;;;5079481;28;20036;-59
2022/08/14 05:25:44;;;;;;;8.23;6.10;;;19.80;99.90;;;;;;5078812;28;20036;-59
2022/08/14 05:28:17;;;;;;;6.95;6.00;;;20.00;99.90;;;;;;5078490;28;20032;-58
2022/08/14 05:30:47;;;;;;;9.20;6.18;;;20.10;99.90;;;;;;5079271;28;20036;-59
2022/08/14 05:33:17;;;;;;;5.78;5.28;;;20.10;99.90;;;;;;5079343;28;20292;-59
2022/08/14 05:35:44;;;;;;;6.43;5.20;;;20.10;99.90;;;;;;5079316;28;20025;-58
2022/08/14 05:38:12;;;;;;;5.30;4.90;;;20.20;99.90;;;;;;5079328;28;20123;-59
2022/08/14 05:40:42;;;;;;;5.78;4.90;;;20.30;99.90;;;;;;5078464;28;20052;-59
2022/08/14 05:43:09;;;;;;;6.68;4.25;;;20.40;99.90;;;;;;5079140;28;20052;-59
2022/08/14 05:45:35;;;;;;;7.70;4.93;;;20.40;99.90;;;;;;5079064;28;20119;-59
2022/08/14 05:48:02;;;;;;;5.97;4.30;;;20.50;99.90;;;;;;5078980;28;20122;-60
2022/08/14 05:50:28;;;;;;;4.57;4.00;;;20.60;99.90;;;;;;5078920;28;20274;-61
2022/08/14 05:52:54;;;;;;;3.83;3.47;;;20.70;99.90;;;;;;5079062;28;20086;-60
2022/08/14 05:55:20;;;;;;;4.90;4.07;;;20.80;99.90;;;;;;5078932;28;20075;-59
2022/08/14 05:57:52;;;;;;;4.28;3.40;;;20.80;99.90;;;;;;5078614;28;20049;-59
2022/08/14 06:00:21;;;;;;;4.00;3.70;;;20.90;99.90;;;;;;5078744;28;20032;-59
2022/08/14 06:02:47;;;;;;;5.40;3.95;;;20.90;99.90;;;;;;5078076;28;20361;-59
2022/08/14 06:05:12;;;;;;;5.82;4.28;;;21.00;99.90;;;;;;5078714;28;20170;-59
2022/08/14 06:07:38;;;;;;;6.53;4.30;;;21.10;99.90;;;;;;5078609;28;20037;-60
2022/08/14 06:10:07;;;;;;;6.45;4.75;;;21.20;99.90;;;;;;5077768;28;20366;-58
2022/08/14 06:12:33;;;;;;;5.03;4.63;;;21.20;99.90;;;;;;5077930;28;20042;-59
2022/08/14 06:14:59;;;;;;;5.32;4.82;;;21.20;99.90;;;;;;5078415;28;20032;-59
2022/08/14 06:17:25;;;;;;;6.40;5.22;;;21.30;99.90;;;;;;5078476;28;20029;-59
2022/08/14 06:19:51;;;;;;;5.82;5.28;;;21.30;99.90;;;;;;5078338;28;20103;-59
2022/08/14 06:22:17;;;;;;;6.55;4.90;;;21.40;99.90;;;;;;5078378;28;20055;-60
2022/08/14 06:24:43;;;;;;;5.55;4.85;;;21.40;99.90;;;;;;5078251;28;20028;-59
2022/08/14 06:27:09;;;;;;;6.53;4.60;;;21.50;99.90;;;;;;5077420;28;20024;-60
2022/08/14 06:29:36;;;;;;;5.13;4.65;;;21.60;99.90;;;;;;5078457;28;20039;-61
2022/08/14 06:32:03;;;;;;;6.53;4.47;;;21.60;99.90;;;;;;5078088;28;20388;-59
2022/08/14 06:34:29;;;;;;;8.85;5.50;;;21.70;99.90;;;;;;5077993;28;20055;-59
2022/08/14 06:36:55;;;;;;;4.38;3.97;;;21.80;99.90;;;;;;5078536;28;20025;-59
2022/08/14 06:39:23;;;;;;;4.25;3.88;;;22.00;99.90;;;;;;5077257;28;20032;-59
2022/08/14 06:41:48;;;;;;;5.43;4.63;;;22.00;99.90;;;;;;5078288;28;20292;-60
2022/08/14 06:44:14;;;;;;;5.90;4.43;;;22.10;99.90;;;;;;5078222;28;20024;-59
2022/08/14 06:46:40;;;;;;;6.25;3.70;;;22.30;99.90;;;;;;5077997;28;20117;-59
2022/08/14 06:49:06;;;;;;;4.40;4.00;;;22.40;99.90;;;;;;5077661;28;20028;-60
2022/08/14 06:51:34;;;;;;;3.92;3.60;;;22.60;99.90;;;;;;5077824;28;20341;-60
2022/08/14 06:54:00;;;;;;;4.15;3.33;;;22.70;99.90;;;;;;5077758;28;20390;-59
2022/08/14 06:56:26;;;;;;;3.33;3.03;;;22.70;99.90;;;;;;5076988;28;20035;-58
2022/08/14 06:58:52;;;;;;;4.78;3.22;;;22.90;99.90;;;;;;5077477;28;20057;-60
2022/08/14 07:06:46;;;;;;;3.95;3.15;;;23.40;99.90;;;;;;5077580;28;20120;-59
2022/08/14 07:09:12;;;;;;;2.72;2.53;;;23.50;99.90;;;;;;5076282;28;20052;-59
2022/08/14 07:11:38;;;;;;;3.00;2.42;;;23.70;99.90;;;;;;5077826;28;20382;-59
2022/08/14 07:14:04;;;;;;;2.80;2.53;;;23.90;99.90;;;;;;5060147;28;20110;-61
2022/08/14 07:16:30;;;;;;;2.72;2.53;;;24.00;99.90;;;;;;5077935;28;20028;-59
2022/08/14 07:18:56;;;;;;;4.63;2.80;;;24.20;99.90;;;;;;5076520;28;20098;-60
2022/08/14 07:21:22;;;;;;;3.97;2.90;;;24.20;99.90;;;;;;5077294;28;20419;-59
2022/08/14 07:23:48;;;;;;;3.35;3.05;;;24.30;99.90;;;;;;5077275;28;20041;-60
2022/08/14 07:26:14;;;;;;;3.00;2.75;;;24.50;99.90;;;;;;5077282;28;20407;-59
2022/08/14 07:28:40;;;;;;;5.40;2.95;;;24.50;99.90;;;;;;5077388;28;20032;-59
2022/08/14 07:31:08;;;;;;;3.03;2.83;;;24.60;99.90;;;;;;5077738;28;20028;-58
2022/08/14 07:33:44;;;;;;;3.25;2.60;;;24.70;99.90;;;;;;5077029;28;20388;-59
2022/08/14 07:36:12;;;;;;;5.38;3.55;;;24.90;99.90;;;;;;5077380;28;20055;-59
2022/08/14 07:38:39;;;;;;;4.50;3.17;;;25.10;99.90;;;;;;5077004;28;20029;-58
2022/08/14 07:41:07;;;;;;;3.10;2.80;;;25.30;99.90;;;;;;5077001;28;20044;-58
2022/08/14 07:43:34;;;;;;;3.15;2.88;;;25.40;99.90;;;;;;5077261;28;20338;-58
2022/08/14 07:46:01;;;;;;;7.55;3.40;;;25.50;99.90;;;;;;5076999;28;20072;-58
2022/08/14 07:48:27;;;;;;;3.58;3.28;;;25.60;99.90;;;;;;5076867;28;20035;-59
2022/08/14 07:50:53;;;;;;;3.28;2.97;;;25.70;99.90;;;;;;5077043;28;20036;-58
2022/08/14 07:53:20;;;;;;;3.60;2.90;;;25.80;99.90;;;;;;5076912;28;20025;-60
2022/08/14 07:55:47;;;;;;;3.70;3.00;;;25.90;99.90;;;;;;5076959;28;20427;-59
2022/08/14 07:58:14;;;;;;;3.60;3.40;;;25.80;99.90;;;;;;5076717;28;20359;-59
2022/08/14 08:00:41;;;;;;;3.30;3.10;;;25.80;99.60;;;;;;5076914;28;20060;-59
2022/08/14 08:03:10;;;;;;;3.78;3.47;;;25.80;99.70;;;;;;5076791;28;20035;-59
2022/08/14 08:05:39;;;;;;;3.75;3.45;;;26.00;99.40;;;;;;5077028;28;20300;-60
2022/08/14 08:08:07;;;;;;;3.50;3.20;;;26.20;99.20;;;;;;5076664;28;20033;-59
2022/08/14 08:10:35;;;;;;;3.60;3.30;;;26.10;98.30;;;;;;5076067;28;20115;-59
2022/08/14 08:13:11;;;;;;;4.22;3.40;;;26.10;98.30;;;;;;5075885;28;20032;-60
2022/08/14 08:15:43;;;;;;;3.90;3.53;;;26.20;98.30;;;;;;5076713;28;20119;-60
2022/08/14 08:18:11;;;;;;;3.83;3.40;;;26.20;98.10;;;;;;5076695;28;20044;-60
2022/08/14 08:20:40;;;;;;;5.25;3.83;;;26.20;97.00;;;;;;5076706;28;20328;-59
2022/08/14 08:23:07;;;;;;;4.22;3.63;;;26.10;97.60;;;;;;5079709;28;20435;-60
2022/08/14 08:25:38;;;;;;;3.42;3.22;;;26.20;97.20;;;;;;5080837;28;20032;-60
2022/08/14 08:28:10;;;;;;;4.07;3.50;;;26.30;96.80;;;;;;5081161;28;20415;-60
2022/08/14 08:30:40;;;;;;;3.90;3.60;;;26.60;96.40;;;;;;5081130;28;20097;-57
2022/08/14 08:33:06;;;;;;;6.97;3.83;;;26.90;96.60;;;;;;5079702;28;20067;-57
2022/08/14 08:35:34;;;;;;;3.58;3.28;;;27.20;96.20;;;;;;5080454;28;20040;-61
2022/08/14 08:38:03;;;;;;;3.95;3.58;;;27.40;95.10;;;;;;5080441;28;20097;-59
2022/08/14 08:40:35;;;;;;;4.20;3.58;;;27.40;94.40;;;;;;5080350;28;20094;-60
2022/08/14 08:43:06;;;;;;;4.05;3.65;;;27.40;95.00;;;;;;5080311;28;20040;-59
2022/08/14 08:45:34;;;;;;;5.82;3.72;;;27.50;94.60;;;;;;5080298;28;20028;-59
2022/08/14 08:48:01;;;;;;;3.80;3.50;;;27.70;94.20;;;;;;5080081;28;20033;-62
2022/08/14 08:50:30;;;;;;;3.45;3.15;;;27.70;93.50;;;;;;5080087;28;20029;-60
2022/08/14 08:53:03;;;;;;;5.63;3.40;;;27.90;93.40;;;;;;5080215;28;20289;-58
2022/08/14 08:55:32;;;;;;;3.60;3.30;;;28.00;93.10;;;;;;5079972;28;20029;-60
2022/08/14 08:58:08;;;;;;;3.67;3.47;;;28.10;92.10;;;;;;5079786;28;20316;-59
2022/08/14 09:00:36;;;;;;;5.03;3.45;;;28.10;92.80;;;;;;5079319;28;20288;-59
2022/08/14 09:03:08;;;;;;;4.20;3.80;;;28.40;93.40;;;;;;5079823;28;20032;-59
2022/08/14 09:05:37;;;;;;;4.60;3.35;;;28.50;93.70;;;;;;5079225;28;20052;-60
2022/08/14 09:08:18;;;;;;;5.82;3.17;;;28.70;94.00;;;;;;5079605;28;20032;-59
2022/08/14 09:10:45;;;;;;;5.25;3.42;;;28.60;92.20;;;;;;5079633;28;20032;-59
2022/08/14 09:13:11;;;;;;;3.55;3.25;;;28.80;92.80;;;;;;5079614;28;20049;-63
2022/08/14 09:15:43;;;;;;;3.60;3.30;;;29.00;92.40;;;;;;5079691;28;20025;-60
2022/08/14 09:18:10;;;;;;;4.15;3.70;;;29.20;92.70;;;;;;5079529;28;20032;-60
2022/08/14 09:20:41;;;;;;;5.63;3.40;;;29.20;92.40;;;;;;5079310;28;20032;-60
2022/08/14 09:23:11;;;;;;;4.72;3.20;;;29.10;92.60;;;;;;5079168;28;20048;-59
2022/08/14 09:25:40;;;;;;;3.50;3.20;;;29.30;92.60;;;;;;5079286;28;20029;-60
2022/08/14 09:28:07;;;;;;;5.32;3.40;;;29.60;92.80;;;;;;5078438;28;20032;-60
2022/08/14 09:30:35;;;;;;;3.97;3.47;;;29.60;92.50;;;;;;5079121;28;20032;-59
2022/08/14 09:33:01;;;;;;;4.53;3.38;;;29.70;91.80;;;;;;5077940;28;20028;-59
2022/08/14 09:35:43;;;;;;;4.13;3.47;;;29.80;92.00;;;;;;5079089;28;20170;-59
2022/08/14 09:38:43;;;;;;;7.80;3.50;;;30.10;91.60;;;;;;5079419;28;20273;-60
2022/08/14 09:41:36;;;;;;;3.40;3.20;;;30.20;91.80;;;;;;5079171;28;20043;-60
2022/08/14 09:44:40;;;;;;;5.50;3.30;;;30.40;91.10;;;;;;5079073;28;20301;-59
2022/08/14 09:47:06;;;;;;;4.03;3.25;;;30.50;90.50;;;;;;5078910;28;20024;-59
2022/08/14 09:49:34;;;;;;;6.80;3.40;;;30.90;90.90;;;;;;5079093;28;20037;-59
2022/08/14 09:52:12;;;;;;;5.70;3.33;;;31.00;87.70;;;;;;5079016;28;20552;-59
2022/08/14 09:54:41;;;;;;;5.47;3.28;;;31.40;86.70;;;;;;5078779;28;20048;-60
2022/08/14 09:57:23;;;;;;;4.22;3.20;;;31.50;87.20;;;;;;5078968;28;20335;-60
2022/08/14 09:59:50;;;;;;;6.32;3.20;;;31.50;84.80;;;;;;5078952;28;20024;-61
2022/08/14 10:02:22;;;;;;;5.32;2.80;;;31.70;83.30;;;;;;5078747;28;20033;-58
2022/08/14 10:05:08;;;;;;;3.30;2.83;;;31.40;82.40;;;;;;5078769;28;20042;-59
2022/08/14 10:07:49;;;;;;;2.50;1.90;;;31.40;81.30;;;;;;5078974;28;20040;-60
2022/08/14 10:10:30;;;;;;;4.03;2.47;;;31.50;75.10;;;;;;5078508;28;20025;-59
2022/08/14 10:12:57;;;;;;;2.78;2.45;;;31.40;77.00;;;;;;5078703;28;20043;-60
2022/08/14 10:15:25;;;;;;;6.63;2.85;;;31.60;76.90;;;;;;5077557;28;20463;-59
2022/08/14 10:18:08;;;;;;;3.55;2.40;;;31.90;75.60;;;;;;5078481;28;20044;-59
2022/08/14 10:20:56;;;;;;;2.00;1.85;;;31.70;75.00;;;;;;5077993;28;20335;-59
2022/08/14 10:23:24;;;;;;;3.10;1.77;;;31.70;70.40;;;;;;5078267;28;20115;-59
2022/08/14 10:26:04;;;;;;;3.50;1.85;;;31.90;70.50;;;;;;5078334;28;20296;-59
2022/08/14 10:28:41;;;;;;;2.55;1.85;;;31.90;70.20;;;;;;5078116;28;20044;-59
2022/08/14 10:31:20;;;;;;;2.50;2.20;;;32.10;67.70;;;;;;5077175;28;20028;-58
2022/08/14 10:34:01;;;;;;;1.95;1.85;;;32.30;67.00;;;;;;5078413;28;20052;-60
2022/08/14 10:36:31;;;;;;;3.95;2.08;;;32.30;67.00;;;;;;5077404;28;20043;-61
2022/08/14 10:38:59;;;;;;;2.67;1.92;;;32.30;67.30;;;;;;5078064;28;20137;-60
2022/08/14 10:41:35;;;;;;;1.70;1.35;;;32.10;67.90;;;;;;5077029;28;20043;-59
2022/08/14 10:44:08;;;;;;;1.85;1.52;;;32.00;60.80;;;;;;5077518;28;20322;-59
2022/08/14 10:46:42;;;;;;;3.05;1.70;;;32.10;59.40;;;;;;5077537;28;20044;-60
2022/08/14 10:49:25;;;;;;;1.50;1.40;;;32.20;59.30;;;;;;5077004;28;20402;-61
2022/08/14 10:52:04;;;;;;;1.77;1.58;;;32.00;58.10;;;;;;5077809;28;20029;-62
2022/08/14 10:54:34;;;;;;;3.78;1.40;;;31.70;59.00;;;;;;5077814;28;20024;-61
2022/08/14 10:57:17;;;;;;;1.50;1.40;;;32.20;57.60;;;;;;5077662;28;20064;-61
2022/08/14 10:59:51;;;;;;;4.55;1.55;;;32.50;55.80;;;;;;5077186;28;20051;-62
2022/08/14 11:02:19;;;;;;;3.13;1.20;;;32.20;57.10;;;;;;5076983;28;20032;-60
2022/08/14 11:05:02;;;;;;;2.75;1.63;;;33.70;56.20;;;;;;5077542;28;20356;-60
2022/08/14 11:07:30;;;;;;;4.45;1.40;;;35.40;54.00;;;;;;5077470;28;20048;-61
2022/08/14 11:10:02;;;;;;;2.03;1.40;;;36.00;51.20;;;;;;5077434;28;20308;-60
2022/08/14 11:12:46;;;;;;;1.40;1.30;;;36.00;50.70;;;;;;5076704;28;20086;-60
2022/08/14 11:15:19;;;;;;;2.90;1.20;;;36.20;50.50;;;;;;5077254;28;20036;-62
2022/08/14 11:17:46;;;;;;;3.10;1.40;;;37.00;49.80;;;;;;5077152;28;20446;-61
2022/08/14 11:20:14;;;;;;;1.85;1.52;;;37.00;46.70;;;;;;5077149;28;20090;-61
2022/08/14 11:22:41;;;;;;;4.80;1.50;;;36.80;46.80;;;;;;5077789;28;20021;-61
2022/08/14 11:25:10;;;;;;;2.92;1.30;;;36.80;46.90;;;;;;5076380;28;20036;-60
2022/08/14 11:27:39;;;;;;;1.92;1.38;;;37.90;45.50;;;;;;5076275;28;20035;-61
2022/08/14 11:30:08;;;;;;;5.53;1.55;;;37.70;45.00;;;;;;5077010;28;20028;-60
2022/08/14 11:32:35;;;;;;;2.08;1.40;;;37.60;44.70;;;;;;5076975;28;20024;-60
2022/08/14 11:35:02;;;;;;;1.33;1.23;;;37.60;44.90;;;;;;5077006;28;20044;-60
2022/08/14 11:37:28;;;;;;;1.77;1.40;;;38.00;44.40;;;;;;5077130;28;20033;-60
2022/08/14 11:39:54;;;;;;;4.18;1.30;;;38.20;43.80;;;;;;5077046;28;20090;-60
2022/08/14 11:42:23;;;;;;;4.30;1.42;;;38.20;43.40;;;;;;5076874;28;20401;-60
2022/08/14 11:44:50;;;;;;;1.48;1.35;;;38.10;44.80;;;;;;5077151;28;20067;-60
2022/08/14 11:47:18;;;;;;;2.13;1.20;;;38.60;43.10;;;;;;5077587;28;20031;-60
2022/08/14 11:49:48;;;;;;;2.60;1.38;;;39.10;42.70;;;;;;5076860;28;20043;-61
2022/08/14 11:52:15;;;;;;;1.50;1.10;;;40.00;42.00;;;;;;5076996;28;20025;-61
2022/08/14 11:54:41;;;;;;;1.23;1.13;;;39.40;39.40;;;;;;5076776;28;20281;-61
2022/08/14 11:57:15;;;;;;;1.55;1.00;;;39.80;39.80;;;;;;5059168;28;20119;-61
2022/08/14 11:59:41;;;;;;;3.25;1.00;;;40.00;39.60;;;;;;5076784;28;20059;-61
2022/08/14 12:02:15;;;;;;;1.33;1.10;;;39.20;38.30;;;;;;5076879;28;20307;-61
2022/08/14 12:04:49;;;;;;;2.67;1.10;;;38.40;39.80;;;;;;5076611;28;20028;-61
2022/08/14 12:07:15;;;;;;;1.98;1.20;;;38.80;39.80;;;;;;5076745;28;20132;-61
2022/08/14 12:09:43;;;;;;;3.28;1.00;;;38.90;39.20;;;;;;5076754;28;20415;-61
2022/08/14 12:12:31;;;;;;;2.97;1.00;;;38.90;39.40;;;;;;5075941;28;20347;-61
2022/08/14 12:14:59;;;;;;;4.32;1.30;;;38.10;39.40;;;;;;5076689;28;20316;-60
2022/08/14 12:17:27;;;;;;;1.77;1.15;;;37.20;40.70;;;;;;5077000;28;20021;-60
2022/08/14 12:19:57;;;;;;;2.60;1.08;;;37.30;41.10;;;;;;5076645;28;20392;-62
2022/08/14 12:22:34;;;;;;;1.65;1.00;;;38.40;40.20;;;;;;5059896;28;20036;-60
2022/08/14 12:25:01;;;;;;;2.40;1.30;;;38.60;39.50;;;;;;5076431;28;20028;-58
2022/08/14 12:27:48;;;;;;;1.65;1.20;;;38.50;39.40;;;;;;5076575;28;20289;-58
2022/08/14 12:30:34;;;;;;;2.97;1.30;;;37.50;40.60;;;;;;5076574;28;20048;-60
2022/08/14 12:33:03;;;;;;;1.98;1.10;;;37.60;40.50;;;;;;5076504;28;20042;-60
2022/08/14 12:35:40;;;;;;;1.42;1.20;;;37.40;40.30;;;;;;5076457;28;20021;-60
2022/08/14 12:38:06;;;;;;;3.50;1.08;;;38.20;41.00;;;;;;5076499;28;20035;-60
2022/08/14 12:40:32;;;;;;;1.85;1.20;;;38.50;40.20;;;;;;5075970;28;20123;-60
2022/08/14 12:43:04;;;;;;;2.15;1.00;;;38.70;39.60;;;;;;5076865;28;20036;-60
2022/08/14 12:45:32;;;;;;;4.68;1.10;;;39.70;38.50;;;;;;5076684;28;20297;-61
2022/08/14 12:48:04;;;;;;;1.90;1.17;;;40.60;37.40;;;;;;5076225;28;20063;-60
2022/08/14 12:50:38;;;;;;;2.08;1.10;;;40.80;36.80;;;;;;5076164;28;20270;-60
2022/08/14 12:53:04;;;;;;;2.85;1.05;;;40.80;36.50;;;;;;5076149;28;20032;-60
2022/08/14 12:55:34;;;;;;;3.00;1.13;;;41.10;36.40;;;;;;5076237;28;20051;-61
2022/08/14 12:58:06;;;;;;;1.25;1.05;;;40.50;37.00;;;;;;5076247;28;20565;-61
2022/08/14 13:00:37;;;;;;;2.28;1.10;;;39.10;37.40;;;;;;5076164;28;20047;-60
2022/08/14 13:03:04;;;;;;;1.17;0.93;;;39.10;38.50;;;;;;5076242;28;20115;-60
2022/08/14 13:05:36;;;;;;;2.60;1.20;;;40.30;38.30;;;;;;5076082;28;20040;-61
2022/08/14 13:08:06;;;;;;;3.10;1.20;;;41.70;36.50;;;;;;5077110;28;20047;-59
2022/08/14 13:10:33;;;;;;;1.13;1.02;;;41.60;35.80;;;;;;5079760;28;20029;-59
2022/08/14 13:13:01;;;;;;;2.10;1.42;;;42.30;35.10;;;;;;5079667;28;20040;-59
2022/08/14 13:15:27;;;;;;;1.40;1.15;;;42.90;34.40;;;;;;5079622;28;20114;-59
2022/08/14 13:17:55;;;;;;;7.47;1.40;;;43.60;34.00;;;;;;5079673;28;20167;-58